Earlton, Kansas
Current Conditions -  °F | °C
As of 2:52 AM on Wednesday 26 Nov 2014 (Local Time) from KCNU Reporting Station
Overcast Overcast  
Wind Chill: 35°   Ceiling: 9500
Heat Index: 41°   Visibility: 10mi
Dew Point: 25°   Wind: 9mph
Humidity: 53%   Direction: 190°S
Pressure: 29.96"   Gusts: NA
Location:  37.6378°N, 95.4622°W
Report Text: KCNU 260852Z AUTO 19008KT 10SM OVC095 05/M04 A2996 RMK AO2 SLP148 T00501039 55015
Loading
Personal Weather Stations






























Interactive Weather Map New forecast layout! Learn more

10-Day Weather Forecast

Advertisements
Track Severe Weather on mobile